createdAt,value
2018-07-26T00:01:13.801Z,9.68
2018-07-26T00:05:14.564Z,9.08
2018-07-26T00:11:15.390Z,8.8
2018-07-26T00:17:16.141Z,8.89
2018-07-26T00:21:16.886Z,9.85
2018-07-26T00:27:20.442Z,10.09
2018-07-26T00:31:21.064Z,9.51
2018-07-26T00:37:21.846Z,8.56
2018-07-26T00:43:25.581Z,8.64
2018-07-26T00:47:26.200Z,9.24
2018-07-26T00:53:27.166Z,9.35
2018-07-26T00:57:27.826Z,10.46
2018-07-26T01:03:28.463Z,10.77
2018-07-26T01:09:29.117Z,10.77
2018-07-26T01:13:29.671Z,12.14
2018-07-26T01:19:30.341Z,11.51
2018-07-26T01:23:31.464Z,11.52
2018-07-26T01:25:32.762Z,10.13
2018-07-26T01:29:33.427Z,12.97
2018-07-26T01:35:34.305Z,12.2
2018-07-26T01:39:35.066Z,12.89
2018-07-26T01:45:35.822Z,10.62
2018-07-26T01:49:36.566Z,11.9
2018-07-26T01:51:37.307Z,9.36
2018-07-26T01:55:38.517Z,10.35
2018-07-26T02:01:42.244Z,8.72
2018-07-26T02:05:42.874Z,8.86
2018-07-26T02:11:43.442Z,8.75
2018-07-26T02:15:44.023Z,9.91
2018-07-26T02:17:44.642Z,8.79
2018-07-26T02:21:45.231Z,9.3
2018-07-26T02:27:46.033Z,9.1
2018-07-26T02:31:46.676Z,10.49
2018-07-26T02:37:47.254Z,11.33
2018-07-26T02:41:47.831Z,10.85
2018-07-26T02:43:48.436Z,9.22
2018-07-26T02:47:49.108Z,10.27
2018-07-26T02:53:49.767Z,10.04
2018-07-26T02:57:50.332Z,9.68
2018-07-26T03:03:53.965Z,8.93
2018-07-26T03:09:54.580Z,10.1
2018-07-26T03:13:55.509Z,10.95
2018-07-26T03:19:56.228Z,10.13
2018-07-26T03:23:56.761Z,9.93
2018-07-26T03:29:57.366Z,10.64
2018-07-26T03:35:58.083Z,10.08
2018-07-26T03:39:58.905Z,11.21
2018-07-26T03:45:59.537Z,9.35
2018-07-26T03:50:00.128Z,11.14
2018-07-26T03:56:01.115Z,10.31
2018-07-26T04:02:01.720Z,10.45
2018-07-26T04:06:02.594Z,11.51
2018-07-26T04:12:03.353Z,11.71
2018-07-26T04:16:06.975Z,9.47
2018-07-26T04:18:07.508Z,8.89
2018-07-26T04:22:08.135Z,11.02
2018-07-26T04:28:08.773Z,12.56
2018-07-26T04:32:09.720Z,11.57
2018-07-26T04:38:10.279Z,11.62
2018-07-26T04:42:10.924Z,10.64
2018-07-26T04:44:11.546Z,14.12
2018-07-26T04:48:12.258Z,13.05
2018-07-26T04:54:12.901Z,12.68
2018-07-26T04:58:13.639Z,11.46
2018-07-26T05:04:14.360Z,11.8
2018-07-26T05:08:14.968Z,12.3
2018-07-26T05:10:15.457Z,10.39
2018-07-26T05:14:16.136Z,11.14
2018-07-26T05:20:16.777Z,18.91
2018-07-26T05:24:17.462Z,19.23
2018-07-26T05:30:18.478Z,24.61
2018-07-26T05:36:19.146Z,21.88
2018-07-26T05:40:22.787Z,19.27
2018-07-26T05:46:24.027Z,16.97
2018-07-26T05:50:24.772Z,16
2018-07-26T05:56:25.425Z,12.61
2018-07-26T06:02:26.518Z,14.4
2018-07-26T06:06:30.150Z,12.12
2018-07-26T06:12:30.818Z,15.01
2018-07-26T06:16:32.553Z,13.5
2018-07-26T06:22:33.417Z,14.74
2018-07-26T06:28:33.954Z,15.71
2018-07-26T06:32:34.742Z,17.53
2018-07-26T06:38:35.380Z,11.57
2018-07-26T06:42:36.002Z,14.62
2018-07-26T06:48:36.659Z,15.25
2018-07-26T06:54:37.360Z,13.66
2018-07-26T06:58:37.927Z,14.78
2018-07-26T07:04:38.564Z,13.48
2018-07-26T07:08:39.159Z,16.53
2018-07-26T07:10:39.767Z,11.28
2018-07-26T07:14:40.464Z,16.22
2018-07-26T07:20:41.174Z,14.02
2018-07-26T07:24:41.930Z,14.33
2018-07-26T07:30:42.606Z,15.49
2018-07-26T07:34:43.225Z,15.84
2018-07-26T07:36:43.798Z,13.97
2018-07-26T07:40:44.462Z,16.32
2018-07-26T07:46:45.073Z,15.71
2018-07-26T07:50:45.682Z,18.6
2018-07-26T07:56:46.363Z,19.31
2018-07-26T08:02:46.988Z,15.37
2018-07-26T08:06:47.760Z,17.51
2018-07-26T08:12:48.319Z,13.69
2018-07-26T08:16:48.845Z,16.32
2018-07-26T08:22:49.518Z,16.88
2018-07-26T08:28:50.151Z,16.22
2018-07-26T08:32:50.810Z,16.82
2018-07-26T08:38:51.424Z,19.11
2018-07-26T08:42:52.123Z,17.83
2018-07-26T08:48:52.757Z,17.64
2018-07-26T08:54:53.294Z,16.01
2018-07-26T08:58:53.976Z,17.25
2018-07-26T09:04:54.760Z,16.54
2018-07-26T09:08:55.412Z,15.37
2018-07-26T09:10:55.966Z,18.63
2018-07-26T09:14:56.616Z,17.23
2018-07-26T09:20:57.328Z,16.42
2018-07-26T09:24:57.916Z,16.4
2018-07-26T09:30:58.942Z,13.22
2018-07-26T09:34:59.555Z,18.44
2018-07-26T09:37:00.024Z,15.05
2018-07-26T09:41:00.762Z,16.55
2018-07-26T09:47:01.321Z,13.81
2018-07-26T09:51:01.982Z,15.73
2018-07-26T09:57:02.617Z,14.26
2018-07-26T10:03:03.253Z,15.96
2018-07-26T10:07:03.852Z,15.34
2018-07-26T10:13:04.501Z,12.87
2018-07-26T10:17:05.147Z,15.7
2018-07-26T10:23:05.795Z,13.31
2018-07-26T10:29:06.394Z,13.57
2018-07-26T10:33:06.943Z,14.83
2018-07-26T10:39:07.662Z,13.51
2018-07-26T10:43:08.413Z,14.6
2018-07-26T10:45:09.412Z,10.4
2018-07-26T10:49:10.365Z,10.57
2018-07-26T10:55:10.970Z,11.7
2018-07-26T10:59:12.041Z,11.26
2018-07-26T11:05:12.782Z,10.25
2018-07-26T11:09:13.458Z,12.72
2018-07-26T11:11:13.966Z,11.88
2018-07-26T11:15:19.578Z,13.07
2018-07-26T11:21:20.409Z,12.27
2018-07-26T11:25:21.042Z,13.54
2018-07-26T11:31:21.741Z,11.61
2018-07-26T11:35:22.315Z,13.45
2018-07-26T11:37:22.867Z,10.96
2018-07-26T11:41:23.490Z,10.83
2018-07-26T11:47:24.152Z,11.1
2018-07-26T11:51:24.776Z,13.48
2018-07-26T11:57:25.507Z,7.92
2018-07-26T12:03:26.070Z,9.56
2018-07-26T12:07:26.725Z,11.05
2018-07-26T12:13:27.246Z,7.08
2018-07-26T12:17:27.887Z,8.04
2018-07-26T12:23:28.565Z,8.82
2018-07-26T12:29:29.248Z,8.48
2018-07-26T12:33:29.886Z,9.2
2018-07-26T12:39:30.489Z,7.32
2018-07-26T12:43:31.161Z,7.73
2018-07-26T12:45:31.638Z,7.27
2018-07-26T12:49:32.276Z,8.1
2018-07-26T12:55:32.855Z,11.12
2018-07-26T12:59:33.454Z,10.41
2018-07-26T13:05:34.071Z,9.05
2018-07-26T13:09:34.746Z,10.48
2018-07-26T13:11:35.343Z,9.93
2018-07-26T13:15:35.936Z,9.51
2018-07-26T13:21:36.505Z,9.31
2018-07-26T13:25:37.086Z,11.17
2018-07-26T13:31:37.741Z,13.62
2018-07-26T13:37:38.443Z,13.26
2018-07-26T13:41:39.034Z,14.81
2018-07-26T13:47:39.601Z,11.64
2018-07-26T13:51:40.199Z,10.64
2018-07-26T13:57:40.851Z,12.49
2018-07-26T14:03:41.493Z,10.08
2018-07-26T14:07:42.323Z,9.91
2018-07-26T14:13:43.049Z,9.39
2018-07-26T14:17:43.669Z,11.18
2018-07-26T14:19:44.194Z,9.92
2018-07-26T14:23:45.419Z,9.62
2018-07-26T14:29:46.201Z,7.93
2018-07-26T14:33:46.805Z,10.34
2018-07-26T14:39:47.377Z,6.59
2018-07-26T14:43:48.110Z,8.25
2018-07-26T14:45:48.587Z,8.09
2018-07-26T14:49:49.251Z,12.04
2018-07-26T14:55:50.010Z,7.1
2018-07-26T14:59:50.622Z,10.27
2018-07-26T15:05:51.204Z,9.75
2018-07-26T15:09:51.821Z,10.43
2018-07-26T15:11:52.446Z,8.96
2018-07-26T15:15:53.049Z,11.19
2018-07-26T15:21:53.752Z,9.75
2018-07-26T15:25:54.354Z,8.78
2018-07-26T15:31:55.029Z,8.47
2018-07-26T15:37:55.693Z,8.83
2018-07-26T15:41:56.317Z,10.07
2018-07-26T15:47:59.692Z,11.29
2018-07-26T15:52:00.258Z,10.91
2018-07-26T15:58:00.831Z,10.17
2018-07-26T16:04:01.438Z,13.16
2018-07-26T16:08:02.080Z,11.21
2018-07-26T16:14:02.773Z,10.18
2018-07-26T16:18:03.635Z,11.93
2018-07-26T16:24:04.107Z,11.28
2018-07-26T16:30:04.755Z,12.94
2018-07-26T16:34:05.413Z,15.06
2018-07-26T16:40:06.159Z,10.56
2018-07-26T16:44:06.638Z,12.06
2018-07-26T16:46:07.283Z,8.75
2018-07-26T16:50:07.877Z,9.7
2018-07-26T16:56:08.570Z,10.52
2018-07-26T17:00:09.844Z,11.15
2018-07-26T17:06:10.657Z,13.21
2018-07-26T17:10:11.368Z,12.72
2018-07-26T17:12:12.041Z,10.41
2018-07-26T17:16:12.611Z,11.95
2018-07-26T17:22:13.277Z,14.06
2018-07-26T17:26:13.951Z,13.49
2018-07-26T17:32:14.579Z,19.47
2018-07-26T17:38:15.315Z,25.64
2018-07-26T17:42:16.020Z,25.51
2018-07-26T17:48:16.510Z,15.25
2018-07-26T17:52:17.160Z,13.24
2018-07-26T17:58:17.816Z,10.91
2018-07-26T18:04:18.446Z,11.01
2018-07-26T18:08:19.075Z,12.36
2018-07-26T18:14:19.710Z,11
2018-07-26T18:18:20.272Z,11.71
2018-07-26T18:20:20.896Z,13.71
2018-07-26T18:24:21.549Z,14.73
2018-07-26T18:30:22.595Z,11.07
2018-07-26T18:34:23.191Z,13.03
2018-07-26T18:40:23.885Z,11.7
2018-07-26T18:44:24.502Z,11.37
2018-07-26T18:46:25.125Z,8.47
2018-07-26T18:50:25.784Z,10.71
2018-07-26T18:56:26.469Z,10.05
2018-07-26T19:00:27.602Z,12.13
2018-07-26T19:06:28.287Z,10.57
2018-07-26T19:10:28.912Z,10.54
2018-07-26T19:12:29.471Z,10.73
2018-07-26T19:16:30.142Z,10.32
2018-07-26T19:22:30.800Z,9.98
2018-07-26T19:26:31.468Z,11.13
2018-07-26T19:32:31.976Z,10.67
2018-07-26T19:38:32.715Z,11.9
2018-07-26T19:42:33.364Z,12.16
2018-07-26T19:48:34.002Z,11.23
2018-07-26T19:52:34.724Z,12.42
2018-07-26T19:58:35.206Z,12.67
2018-07-26T20:04:35.797Z,14.18
2018-07-26T20:08:36.496Z,15.72
2018-07-26T20:14:37.105Z,14.68
2018-07-26T20:18:37.678Z,16.6
2018-07-26T20:20:38.214Z,14.11
2018-07-26T20:24:38.809Z,15.41
2018-07-26T20:30:40.035Z,13.97
2018-07-26T20:34:40.880Z,15.19
2018-07-26T20:40:41.423Z,14.72
2018-07-26T20:44:42.071Z,15.65
2018-07-26T20:46:42.583Z,13.94
2018-07-26T20:50:43.229Z,14.88
2018-07-26T20:56:43.836Z,13.48
2018-07-26T21:00:44.467Z,16.82
2018-07-26T21:06:45.167Z,13.75
2018-07-26T21:10:45.741Z,16.13
2018-07-26T21:12:46.372Z,14.51
2018-07-26T21:16:47.031Z,16.58
2018-07-26T21:22:47.715Z,13.49
2018-07-26T21:26:48.182Z,15.02
2018-07-26T21:32:48.816Z,12.56
2018-07-26T21:38:49.529Z,13.48
2018-07-26T21:42:50.129Z,12.63
2018-07-26T21:48:50.834Z,13.61
2018-07-26T21:52:51.453Z,14.42
2018-07-26T21:58:52.036Z,14.36
2018-07-26T22:04:52.650Z,14.49
2018-07-26T22:08:53.290Z,13.36
2018-07-26T22:14:53.904Z,12.96
2018-07-26T22:18:54.569Z,15.38
2018-07-26T22:20:55.209Z,15.33
2018-07-26T22:24:55.827Z,13.25
2018-07-26T22:30:56.534Z,12.73
2018-07-26T22:34:57.083Z,11.87
2018-07-26T22:40:57.726Z,11.19
2018-07-26T22:44:58.401Z,13.47
2018-07-26T22:46:58.992Z,12.25
2018-07-26T22:50:59.624Z,13.37
2018-07-26T22:57:00.279Z,12.38
2018-07-26T23:01:00.892Z,12.81
2018-07-26T23:07:01.461Z,11.6
2018-07-26T23:13:02.053Z,12.21
2018-07-26T23:17:02.719Z,12
2018-07-26T23:23:03.281Z,12.97
2018-07-26T23:27:03.894Z,12.08
2018-07-26T23:33:04.577Z,13.25
2018-07-26T23:39:05.219Z,12.72
2018-07-26T23:43:05.827Z,11.24
2018-07-26T23:49:06.412Z,11.25
2018-07-26T23:53:07.045Z,13.27
2018-07-26T23:59:07.731Z,12.36
